Time;durP1;ratioP1;P1;durP2;ratioP2;P2;SDS_P1;SDS_P2;PMS_P1;PMS_P2;Temp;Humidity;BMP_temperature;BMP_pressure;BME280_temperature;BME280_humidity;BME280_pressure;Samples;Min_cycle;Max_cycle;Signal;HPM_P1;HPM_P2
2021/04/01 00:02:09;;;;;;;17.30;9.35;;;;;;;9.47;88.52;100917.41;5183724;28;20030;-77
2021/04/01 00:04:42;;;;;;;12.73;7.97;;;;;;;9.56;88.31;100919.75;5183882;28;20038;-77
2021/04/01 00:07:13;;;;;;;13.88;7.75;;;;;;;9.41;89.04;100907.09;5185493;28;20062;-78
2021/04/01 00:09:43;;;;;;;15.25;8.40;;;;;;;9.36;89.03;100912.47;5194009;28;20559;-78
2021/04/01 00:12:14;;;;;;;15.02;7.93;;;;;;;9.33;89.67;100911.66;5190603;28;20084;-78
2021/04/01 00:14:44;;;;;;;13.80;8.13;;;;;;;9.42;89.62;100908.81;5190279;28;20393;-78
2021/04/01 00:17:14;;;;;;;13.15;7.65;;;;;;;9.62;88.24;100903.97;5192831;28;20041;-78
2021/04/01 00:19:45;;;;;;;14.38;8.90;;;;;;;9.72;87.37;100894.97;5186795;28;20033;-78
2021/04/01 00:22:15;;;;;;;16.60;8.60;;;;;;;9.54;89.22;100905.91;5186989;28;20094;-78
2021/04/01 00:24:45;;;;;;;18.85;9.68;;;;;;;9.52;89.23;100899.88;5187114;28;20088;-78
2021/04/01 00:27:15;;;;;;;12.82;8.70;;;;;;;9.65;88.59;100906.47;5186516;28;20492;-78
2021/04/01 00:29:46;;;;;;;13.30;8.82;;;;;;;9.71;88.14;100903.69;5187655;28;20085;-78
2021/04/01 00:32:16;;;;;;;15.63;10.88;;;;;;;9.80;87.09;100900.84;5186938;28;20034;-78
2021/04/01 00:34:46;;;;;;;17.85;10.85;;;;;;;9.90;87.07;100895.34;5186757;28;20527;-78
2021/04/01 00:37:17;;;;;;;17.08;9.77;;;;;;;9.96;87.35;100899.53;5186344;28;20026;-78
2021/04/01 00:39:47;;;;;;;13.70;8.40;;;;;;;10.08;86.51;100888.75;5195254;28;20112;-78
2021/04/01 00:42:17;;;;;;;13.23;8.45;;;;;;;10.17;85.01;100898.97;5190577;28;20049;-78
2021/04/01 00:44:48;;;;;;;15.77;8.98;;;;;;;9.72;89.11;100887.13;5191184;28;20030;-78
2021/04/01 00:47:18;;;;;;;18.17;9.05;;;;;;;9.97;87.64;100888.19;5193901;28;20034;-78
2021/04/01 00:49:48;;;;;;;13.40;7.90;;;;;;;10.09;87.77;100882.63;5187431;28;20041;-78
2021/04/01 00:52:25;;;;;;;17.30;7.88;;;;;;;10.22;87.48;100878.78;5186082;28;20153;-78
2021/04/01 00:54:55;;;;;;;15.52;7.82;;;;;;;9.84;88.25;100884.19;5185130;28;20022;-78
2021/04/01 00:57:33;;;;;;;14.98;7.72;;;;;;;9.91;88.66;100875.28;5184734;28;20033;-78
2021/04/01 01:00:09;;;;;;;13.25;7.18;;;;;;;9.78;89.62;100881.75;5172317;28;20028;-78
2021/04/01 01:02:40;;;;;;;12.95;7.40;;;;;;;9.86;89.58;100879.78;5185350;28;20041;-78
2021/04/01 01:05:13;;;;;;;14.27;8.10;;;;;;;9.54;91.23;100880.69;5186022;28;20396;-78
2021/04/01 01:07:43;;;;;;;13.05;7.18;;;;;;;9.79;90.63;100875.66;5181861;28;20032;-78
2021/04/01 01:10:21;;;;;;;14.43;7.93;;;;;;;9.88;90.18;100870.16;5182927;28;20085;-78
2021/04/01 01:12:52;;;;;;;13.30;7.80;;;;;;;9.71;90.81;100864.56;5184793;28;20105;-78
2021/04/01 01:15:22;;;;;;;13.07;7.80;;;;;;;9.53;90.46;100865.91;5187628;28;20077;-78
2021/04/01 01:17:54;;;;;;;14.60;8.07;;;;;;;8.87;94.96;100873.72;5188869;28;20030;-78
2021/04/01 01:20:27;;;;;;;14.05;7.72;;;;;;;9.16;94.17;100866.91;5186072;28;20440;-78
2021/04/01 01:22:58;;;;;;;13.40;7.95;;;;;;;9.17;94.31;100868.63;5176748;28;20065;-78
2021/04/01 01:25:28;;;;;;;12.10;7.88;;;;;;;9.22;94.35;100867.59;5184007;28;20037;-78
2021/04/01 01:28:00;;;;;;;16.35;8.75;;;;;;;8.94;95.10;100870.94;5184163;28;20022;-77
2021/04/01 01:30:33;;;;;;;13.80;8.50;;;;;;;9.12;94.32;100875.69;5182030;28;20088;-77
2021/04/01 01:33:06;;;;;;;13.85;7.95;;;;;;;9.46;92.37;100864.34;5182356;28;20026;-77
2021/04/01 01:35:37;;;;;;;14.05;8.70;;;;;;;9.40;91.30;100855.81;5182324;28;20064;-77
2021/04/01 01:38:08;;;;;;;13.52;8.50;;;;;;;9.48;90.98;100861.72;5183167;28;20025;-77
2021/04/01 01:40:39;;;;;;;15.32;9.07;;;;;;;9.51;91.93;100854.63;5191572;28;20029;-77
2021/04/01 01:43:12;;;;;;;15.57;8.90;;;;;;;9.54;91.52;100859.81;5182213;28;20080;-77
2021/04/01 01:45:43;;;;;;;12.25;8.20;;;;;;;9.32;91.21;100863.00;5191431;28;20025;-77
2021/04/01 01:48:14;;;;;;;14.52;9.02;;;;;;;9.16;92.09;100859.09;5185795;28;20029;-77
2021/04/01 01:50:44;;;;;;;16.75;9.18;;;;;;;9.06;93.36;100869.78;5182524;28;20032;-77
2021/04/01 01:53:15;;;;;;;15.25;9.70;;;;;;;8.96;93.54;100861.34;5182209;28;20046;-77
2021/04/01 01:55:45;;;;;;;13.30;9.10;;;;;;;9.02;92.71;100860.28;5182211;28;20034;-77
2021/04/01 01:58:17;;;;;;;19.55;9.77;;;;;;;9.02;93.15;100855.09;5181744;28;20076;-77
2021/04/01 02:00:51;;;;;;;18.10;9.00;;;;;;;9.19;91.64;100851.19;5182196;28;20038;-77
2021/04/01 02:03:26;;;;;;;15.43;8.73;;;;;;;9.07;93.01;100861.06;5181590;28;20014;-77
2021/04/01 02:05:56;;;;;;;14.60;9.50;;;;;;;9.06;93.90;100859.34;5178107;28;20041;-77
2021/04/01 02:08:27;;;;;;;16.88;9.45;;;;;;;9.09;93.07;100849.69;5184744;28;20378;-77
2021/04/01 02:10:57;;;;;;;17.55;9.13;;;;;;;9.17;92.35;100850.34;5183773;28;20029;-77
2021/04/01 02:13:28;;;;;;;18.70;9.30;;;;;;;9.36;90.63;100846.38;5178476;28;20018;-77
2021/04/01 02:15:58;;;;;;;15.40;9.23;;;;;;;9.29;91.46;100844.84;5185231;28;20022;-77
2021/04/01 02:18:29;;;;;;;16.58;9.10;;;;;;;9.28;91.88;100851.78;5181712;28;20033;-77
2021/04/01 02:21:01;;;;;;;13.98;8.57;;;;;;;9.18;92.28;100844.25;5181708;28;20021;-77
2021/04/01 02:23:33;;;;;;;16.80;9.27;;;;;;;9.18;91.88;100850.31;5181451;28;20018;-77
2021/04/01 02:26:05;;;;;;;16.30;9.25;;;;;;;9.21;91.48;100838.94;5181120;28;20085;-77
2021/04/01 02:28:36;;;;;;;18.15;9.48;;;;;;;9.04;92.77;100838.53;5181732;28;20030;-77
2021/04/01 02:31:09;;;;;;;16.42;7.80;;;;;;;9.21;92.38;100844.16;5181656;28;20021;-77
2021/04/01 02:33:40;;;;;;;12.30;7.95;;;;;;;9.14;91.88;100838.25;5181425;28;20041;-77
2021/04/01 02:36:10;;;;;;;14.82;8.05;;;;;;;9.19;92.19;100835.53;5181954;28;20499;-77
2021/04/01 02:38:41;;;;;;;16.45;8.38;;;;;;;9.13;91.94;100840.03;5188950;28;20037;-77
2021/04/01 02:41:11;;;;;;;13.50;7.57;;;;;;;9.07;93.02;100841.03;5189467;28;20025;-77
2021/04/01 02:43:41;;;;;;;14.82;8.43;;;;;;;9.32;92.21;100839.53;5179794;28;20396;-78
2021/04/01 02:46:13;;;;;;;11.45;7.35;;;;;;;9.30;92.40;100836.97;5182285;28;20053;-78
2021/04/01 02:48:43;;;;;;;15.73;8.27;;;;;;;9.23;92.22;100838.03;5182515;28;20451;-78
2021/04/01 02:51:13;;;;;;;13.63;7.78;;;;;;;9.25;92.91;100838.84;5181422;28;20068;-77
2021/04/01 02:53:44;;;;;;;15.33;8.17;;;;;;;9.25;92.61;100832.75;5180751;28;20033;-77
2021/04/01 02:56:14;;;;;;;15.18;7.97;;;;;;;9.47;92.58;100831.31;5180831;28;20311;-77
2021/04/01 02:58:44;;;;;;;17.98;7.80;;;;;;;9.25;92.30;100819.72;5184077;28;20507;-78
2021/04/01 03:01:15;;;;;;;15.35;7.70;;;;;;;9.09;94.16;100826.22;5185659;28;20109;-78
2021/04/01 03:03:49;;;;;;;13.82;7.70;;;;;;;9.04;94.76;100830.69;5180775;28;20114;-78
2021/04/01 03:06:20;;;;;;;13.80;7.72;;;;;;;9.04;94.97;100815.06;5181136;28;20041;-78
2021/04/01 03:08:50;;;;;;;13.52;8.43;;;;;;;8.88;95.98;100823.31;5186433;28;20038;-78
2021/04/01 03:11:22;;;;;;;12.73;7.88;;;;;;;8.93;96.39;100821.44;5187735;28;20025;-77
2021/04/01 03:13:52;;;;;;;11.50;8.05;;;;;;;8.97;96.61;100810.91;5179257;28;20026;-78
2021/04/01 03:16:22;;;;;;;11.57;7.43;;;;;;;8.94;95.38;100817.94;5180363;28;20026;-78
2021/04/01 03:18:52;;;;;;;14.60;8.48;;;;;;;8.88;96.00;100821.56;5180226;28;20280;-78
2021/04/01 03:21:23;;;;;;;11.50;7.75;;;;;;;9.06;95.87;100817.63;5181317;28;20029;-78
2021/04/01 03:23:53;;;;;;;13.35;8.10;;;;;;;9.06;95.23;100815.88;5180496;28;20038;-78
2021/04/01 03:26:24;;;;;;;18.95;9.45;;;;;;;9.14;94.22;100817.38;5180993;28;20113;-78
2021/04/01 03:28:54;;;;;;;16.08;9.18;;;;;;;9.26;93.09;100816.22;5180947;28;20083;-78
2021/04/01 03:31:24;;;;;;;15.43;8.82;;;;;;;9.07;94.46;100812.38;5177532;28;20045;-78
2021/04/01 03:33:55;;;;;;;17.33;8.80;;;;;;;9.05;94.00;100811.56;5180248;28;20022;-78
2021/04/01 03:36:26;;;;;;;15.35;8.68;;;;;;;9.04;95.34;100814.22;5180642;28;20319;-78
2021/04/01 03:38:56;;;;;;;14.82;8.15;;;;;;;9.29;93.17;100811.78;5189649;28;20657;-78
2021/04/01 03:41:27;;;;;;;14.48;8.57;;;;;;;9.51;92.90;100809.44;5191019;28;20026;-78
2021/04/01 03:43:57;;;;;;;16.92;7.60;;;;;;;9.48;93.92;100817.38;5184277;28;20463;-78
2021/04/01 03:46:27;;;;;;;15.25;8.75;;;;;;;9.28;94.14;100812.69;5195866;28;20394;-78
2021/04/01 03:48:57;;;;;;;19.77;9.70;;;;;;;8.74;98.32;100809.75;5180688;28;20029;-77
2021/04/01 03:51:28;;;;;;;14.15;8.85;;;;;;;8.85;98.21;100819.03;5180651;28;20025;-78
2021/04/01 03:53:58;;;;;;;15.95;8.98;;;;;;;9.07;96.92;100814.13;5183148;28;20029;-78
2021/04/01 03:56:28;;;;;;;18.20;9.60;;;;;;;8.98;95.65;100820.44;5184102;28;20502;-78
2021/04/01 03:59:05;;;;;;;14.23;9.57;;;;;;;9.09;95.18;100815.78;5184447;28;20026;-78
2021/04/01 04:02:29;;;;;;;16.98;10.00;;;;;;;9.09;94.86;100815.78;5184723;28;20029;-78
2021/04/01 04:15:16;;;;;;;17.88;9.77;;;;;;;9.35;92.56;100811.59;5186635;28;20471;-78
2021/04/01 04:17:46;;;;;;;19.45;9.63;;;;;;;9.20;92.11;100808.56;5193284;28;20115;-78
2021/04/01 04:20:18;;;;;;;19.52;9.65;;;;;;;9.07;93.63;100808.94;5185179;28;20049;-78
2021/04/01 04:22:52;;;;;;;17.48;9.77;;;;;;;9.12;93.65;100807.03;5185772;28;20550;-78
2021/04/01 04:25:24;;;;;;;15.38;9.45;;;;;;;9.00;93.88;100807.34;5185626;28;20064;-78
2021/04/01 04:30:27;;;;;;;15.52;9.60;;;;;;;9.20;91.41;100813.78;5186240;28;20025;-78
2021/04/01 04:32:57;;;;;;;15.68;9.65;;;;;;;9.14;92.30;100816.56;5181523;28;20036;-77
2021/04/01 04:35:28;;;;;;;15.98;9.48;;;;;;;9.10;92.87;100811.44;5185288;28;20472;-77
2021/04/01 04:38:00;;;;;;;16.15;9.77;;;;;;;9.03;93.49;100813.34;5185822;28;20026;-78
2021/04/01 04:40:30;;;;;;;15.55;9.18;;;;;;;9.04;91.89;100815.06;5196953;28;20479;-77
2021/04/01 04:43:01;;;;;;;15.90;9.65;;;;;;;9.00;93.09;100823.88;5185255;28;20076;-78
2021/04/01 04:45:31;;;;;;;15.75;9.27;;;;;;;8.97;93.57;100818.72;5192698;28;20032;-78
2021/04/01 04:48:02;;;;;;;15.30;9.48;;;;;;;8.96;93.62;100814.41;5190067;28;20045;-77
2021/04/01 04:50:32;;;;;;;14.40;9.25;;;;;;;9.04;92.74;100809.84;5186053;28;20068;-77
2021/04/01 04:53:02;;;;;;;15.55;9.27;;;;;;;9.02;93.09;100806.44;5186353;28;20480;-78
2021/04/01 04:55:33;;;;;;;15.70;8.95;;;;;;;9.03;94.11;100818.56;5185649;28;20088;-77
2021/04/01 04:58:09;;;;;;;16.40;9.68;;;;;;;9.03;94.05;100809.91;5185579;28;20500;-78
2021/04/01 05:05:58;;;;;;;15.18;8.85;;;;;;;8.79;97.03;100823.53;5180499;28;20389;-77
2021/04/01 05:08:29;;;;;;;13.60;8.77;;;;;;;8.88;96.81;100816.34;5188297;28;20029;-78
2021/04/01 05:10:59;;;;;;;16.67;9.30;;;;;;;9.02;95.72;100822.06;5192819;28;20025;-78
2021/04/01 05:13:29;;;;;;;12.60;8.52;;;;;;;9.12;94.97;100817.47;5181420;28;20168;-77
2021/04/01 05:15:59;;;;;;;19.40;8.82;;;;;;;9.03;95.22;100821.16;5182743;28;20033;-77
2021/04/01 05:18:30;;;;;;;18.05;10.07;;;;;;;9.08;95.17;100816.69;5184684;28;20053;-77
2021/04/01 05:21:03;;;;;;;16.70;9.73;;;;;;;9.23;94.89;100819.78;5184163;28;20076;-78
2021/04/01 05:23:37;;;;;;;16.10;9.05;;;;;;;9.16;95.84;100812.16;5182877;28;20018;-77
2021/04/01 05:29:01;;;;;;;17.27;10.32;;;;;;;9.37;94.16;100824.63;5181868;28;20044;-77
2021/04/01 05:31:36;;;;;;;16.42;9.23;;;;;;;9.38;94.45;100829.81;5182601;28;20061;-78
2021/04/01 05:34:07;;;;;;;15.90;9.80;;;;;;;9.44;94.98;100829.63;5184786;28;20021;-78
2021/04/01 05:36:42;;;;;;;15.07;9.52;;;;;;;9.58;93.31;100834.47;5185187;28;20026;-78
2021/04/01 05:39:17;;;;;;;21.25;10.32;;;;;;;9.52;93.29;100834.63;5190383;28;20022;-77
2021/04/01 05:41:49;;;;;;;20.00;9.85;;;;;;;9.67;92.76;100836.84;5189545;28;20037;-78
2021/04/01 05:44:34;;;;;;;15.75;10.10;;;;;;;9.75;91.45;100853.13;5187894;28;20025;-78
2021/04/01 05:58:25;;;;;;;14.63;8.30;;;;;;;10.31;94.11;100845.41;5184095;28;20147;-78
2021/04/01 06:03:57;;;;;;;15.80;8.98;;;;;;;10.33;94.29;100833.13;5183273;28;20099;-77
2021/04/01 06:06:51;;;;;;;14.10;9.35;;;;;;;10.25;93.48;100837.75;5179727;28;20029;-78
2021/04/01 06:09:25;;;;;;;17.15;9.40;;;;;;;10.18;93.83;100832.75;5190419;28;20396;-79
2021/04/01 06:11:57;;;;;;;19.42;9.30;;;;;;;10.22;94.36;100836.97;5188359;28;20029;-78
2021/04/01 06:14:34;;;;;;;13.18;8.40;;;;;;;10.40;94.84;100846.88;5184977;28;20021;-78
2021/04/01 06:17:07;;;;;;;13.93;9.20;;;;;;;10.62;93.18;100840.06;5192329;28;20507;-78
2021/04/01 06:19:39;;;;;;;24.30;9.43;;;;;;;10.53;93.58;100845.59;5185545;28;20208;-79
2021/04/01 06:22:09;;;;;;;18.25;9.50;;;;;;;10.61;92.68;100840.97;5185526;28;20384;-78
2021/04/01 06:24:44;;;;;;;19.02;9.65;;;;;;;10.56;93.02;100848.13;5185052;28;20041;-78
2021/04/01 06:27:25;;;;;;;22.00;9.77;;;;;;;10.86;93.16;100852.38;5185153;28;20089;-77
2021/04/01 06:32:49;;;;;;;16.65;9.60;;;;;;;11.10;92.98;100840.19;5183064;28;20491;-78
2021/04/01 06:35:33;;;;;;;20.25;9.73;;;;;;;11.17;92.87;100836.50;5185512;28;20034;-77
2021/04/01 06:40:49;;;;;;;19.58;9.95;;;;;;;11.00;96.32;100842.34;5194899;28;20053;-78
2021/04/01 06:43:24;;;;;;;14.48;8.95;;;;;;;11.31;95.55;100844.69;5183667;28;20029;-78
2021/04/01 06:46:08;;;;;;;19.10;10.65;;;;;;;11.52;94.79;100828.28;5182527;28;20026;-78
2021/04/01 06:51:37;;;;;;;22.65;10.85;;;;;;;12.43;91.82;100826.59;5183665;28;20047;-78
2021/04/01 06:54:16;;;;;;;20.70;10.32;;;;;;;12.54;91.84;100824.41;5180244;28;20018;-79
2021/04/01 07:03:12;;;;;;;21.45;11.32;;;;;;;12.20;92.78;100837.13;5175996;28;20041;-78
2021/04/01 07:05:50;;;;;;;20.60;11.07;;;;;;;12.32;92.21;100828.75;5179057;28;20025;-81
2021/04/01 07:11:32;;;;;;;25.15;14.27;;;;;;;12.61;92.57;100833.72;5180135;28;20069;-78
2021/04/01 07:14:09;;;;;;;31.33;16.20;;;;;;;12.71;89.28;100824.59;5177917;28;20395;-78
2021/04/01 07:19:28;;;;;;;32.50;17.55;;;;;;;12.85;87.07;100821.41;5181504;28;20033;-79
2021/04/01 07:36:00;;;;;;;32.42;18.40;;;;;;;13.42;81.45;100814.59;5183397;28;20029;-78
2021/04/01 07:47:54;;;;;;;33.28;18.45;;;;;;;13.71;85.66;100829.94;5178375;28;20046;-78
2021/04/01 07:50:26;;;;;;;48.85;26.88;;;;;;;14.10;80.08;100834.22;5182143;28;20042;-78
2021/04/01 07:53:02;;;;;;;49.97;27.42;;;;;;;14.17;75.33;100838.34;5181518;28;20064;-77
2021/04/01 07:55:57;;;;;;;48.38;26.95;;;;;;;14.51;73.15;100841.09;5182264;28;20045;-79
2021/04/01 08:01:36;;;;;;;44.45;25.60;;;;;;;14.35;71.97;100845.38;5182832;28;20057;-78
2021/04/01 08:04:09;;;;;;;45.50;26.15;;;;;;;14.39;71.07;100819.81;5183091;28;20030;-79
2021/04/01 08:06:40;;;;;;;46.55;25.63;;;;;;;14.51;71.47;100814.81;5183831;28;20572;-78
2021/04/01 08:09:17;;;;;;;47.40;24.60;;;;;;;14.45;72.23;100819.50;5189704;28;20033;-78
2021/04/01 08:11:53;;;;;;;40.88;24.08;;;;;;;14.55;72.72;100829.50;5187837;28;20041;-77
2021/04/01 08:14:32;;;;;;;51.05;24.65;;;;;;;14.79;71.46;100836.22;5181300;28;20040;-78
2021/04/01 08:17:17;;;;;;;45.75;24.70;;;;;;;14.77;70.00;100805.66;5181553;28;20053;-79
2021/04/01 08:19:51;;;;;;;43.78;24.88;;;;;;;14.83;71.06;100812.31;5184471;28;20041;-79
2021/04/01 08:22:25;;;;;;;50.08;30.67;;;;;;;14.75;70.47;100828.56;5184151;28;20025;-79
2021/04/01 08:25:01;;;;;;;57.40;29.50;;;;;;;14.79;69.84;100877.47;5180161;28;20076;-78
2021/04/01 08:35:46;;;;;;;50.78;28.63;;;;;;;14.79;70.49;100869.59;5184337;28;20041;-78
2021/04/01 08:38:18;;;;;;;49.00;25.80;;;;;;;14.80;70.56;100860.75;5185425;28;20487;-79
2021/04/01 08:40:49;;;;;;;55.63;28.02;;;;;;;14.84;71.10;100856.13;5191011;28;20113;-79
2021/04/01 08:43:53;;;;;;;47.17;26.60;;;;;;;14.92;70.97;100859.25;5184454;28;20108;-79
2021/04/01 08:46:53;;;;;;;46.78;27.42;;;;;;;15.66;69.92;100848.44;5193891;28;20033;-78
2021/04/01 08:49:51;;;;;;;47.03;26.60;;;;;;;15.98;67.19;100839.69;5183795;28;20030;-78
2021/04/01 08:52:36;;;;;;;46.33;26.83;;;;;;;16.17;67.39;100844.81;5183044;28;20018;-80
2021/04/01 08:55:11;;;;;;;48.90;27.15;;;;;;;17.55;64.05;100833.31;5180722;28;20083;-79
2021/04/01 08:57:44;;;;;;;49.92;28.20;;;;;;;18.95;59.09;100820.75;5181434;28;20720;-81
2021/04/01 09:00:16;;;;;;;55.20;29.15;;;;;;;19.95;56.58;100807.66;5181702;28;20034;-81
2021/04/01 09:02:49;;;;;;;46.30;27.63;;;;;;;21.46;55.18;100792.84;5182882;28;20516;-80
2021/04/01 09:05:21;;;;;;;46.78;27.98;;;;;;;22.19;51.80;100783.47;5182410;28;20032;-81
2021/04/01 09:08:00;;;;;;;52.83;32.00;;;;;;;21.91;51.09;100787.50;5182979;28;20466;-80
2021/04/01 09:10:36;;;;;;;51.95;31.90;;;;;;;22.38;48.77;100791.69;5193406;28;20037;-81
2021/04/01 09:13:11;;;;;;;53.42;30.30;;;;;;;22.48;50.35;100798.00;5182716;28;20025;-80
2021/04/01 09:18:25;;;;;;;53.83;33.08;;;;;;;21.99;50.38;100797.53;5186427;28;20160;-81
2021/04/01 09:20:56;;;;;;;;;;;;;;;22.55;48.85;100785.88;5176791;28;20415;-80
2021/04/01 09:23:38;;;;;;;53.35;33.22;;;;;;;22.24;49.54;100781.31;5178702;28;20546;-78
2021/04/01 09:26:11;;;;;;;49.97;33.70;;;;;;;22.30;49.87;100780.81;5178104;28;20478;-80
2021/04/01 09:28:43;;;;;;;52.28;32.80;;;;;;;21.48;51.48;100798.91;5181164;28;20708;-80
2021/04/01 09:31:14;;;;;;;56.80;33.53;;;;;;;21.17;51.45;100792.41;5175276;28;20124;-80
2021/04/01 09:33:46;;;;;;;56.83;33.78;;;;;;;20.80;52.00;100797.88;5179360;28;20105;-78
2021/04/01 09:36:20;;;;;;;54.25;34.50;;;;;;;20.62;53.47;100803.72;5181336;28;21477;-78
2021/04/01 09:38:53;;;;;;;57.05;34.42;;;;;;;20.49;53.96;100803.75;5178362;28;20036;-79
2021/04/01 09:41:35;;;;;;;78.85;43.88;;;;;;;20.15;52.92;100804.47;5181538;28;20577;-80
2021/04/01 09:44:08;;;;;;;73.70;41.92;;;;;;;19.74;54.60;100800.34;5176217;28;20378;-78
2021/04/01 09:47:33;;;;;;;68.15;39.30;;;;;;;19.99;52.99;100792.38;5179495;28;20034;-80
2021/04/01 09:50:11;;;;;;;80.50;48.00;;;;;;;20.08;52.37;100787.31;5162651;28;20523;-79
2021/04/01 09:52:57;;;;;;;66.95;38.80;;;;;;;19.95;53.93;100780.28;5181302;28;20132;-79
2021/04/01 09:55:42;;;;;;;65.38;37.72;;;;;;;20.11;51.00;100783.59;5178989;28;20076;-78
2021/04/01 09:58:39;;;;;;;71.25;38.50;;;;;;;20.09;52.36;100777.53;5181089;28;20037;-80
2021/04/01 10:01:26;;;;;;;70.95;39.30;;;;;;;20.02;52.26;100781.56;5180958;28;20454;-80
2021/04/01 10:04:11;;;;;;;66.18;38.38;;;;;;;20.01;52.72;100780.72;5180286;28;20022;-79
2021/04/01 10:06:49;;;;;;;73.65;40.53;;;;;;;20.11;51.82;100778.28;5174426;28;20435;-78
2021/04/01 10:09:21;;;;;;;78.43;42.30;;;;;;;20.15;51.96;100779.75;5180672;28;20845;-79
2021/04/01 10:12:04;;;;;;;82.53;44.00;;;;;;;19.93;51.39;100772.44;5179426;28;20034;-79
2021/04/01 10:14:48;;;;;;;81.07;43.83;;;;;;;19.61;50.74;100775.66;5183984;28;20476;-80
2021/04/01 10:17:21;;;;;;;76.22;42.85;;;;;;;19.70;51.58;100780.28;5184733;28;20037;-79
2021/04/01 10:19:57;;;;;;;76.85;43.10;;;;;;;19.93;51.58;100780.38;5181972;28;20080;-79
2021/04/01 10:22:29;;;;;;;82.68;44.78;;;;;;;20.10;51.83;100779.25;5179953;28;20579;-80
2021/04/01 10:27:53;;;;;;;87.53;46.47;;;;;;;19.74;50.42;100784.44;5177712;28;20072;-79
2021/04/01 10:30:32;;;;;;;87.40;46.60;;;;;;;19.99;51.36;100777.28;5181695;28;20033;-78
2021/04/01 10:33:07;;;;;;;89.20;48.05;;;;;;;19.84;51.42;100777.53;5177418;28;20080;-78
2021/04/01 10:35:41;;;;;;;89.68;47.95;;;;;;;19.81;51.43;100783.88;5181842;28;20439;-80
2021/04/01 10:38:14;;;;;;;91.07;46.45;;;;;;;19.77;51.42;100785.06;5182442;28;20698;-79
2021/04/01 10:40:48;;;;;;;97.10;48.97;;;;;;;19.66;52.07;100782.34;5189689;28;20266;-79
2021/04/01 10:43:20;;;;;;;85.23;46.10;;;;;;;19.79;52.77;100780.50;5181627;28;20125;-79
2021/04/01 10:45:51;;;;;;;85.30;46.15;;;;;;;19.91;53.05;100778.78;5188404;28;20099;-79
2021/04/01 10:48:29;;;;;;;91.95;49.78;;;;;;;19.89;52.15;100789.53;5182361;28;20073;-79
2021/04/01 10:51:04;;;;;;;96.90;47.63;;;;;;;19.76;52.36;100785.19;5178986;28;20141;-78
2021/04/01 10:53:40;;;;;;;103.22;50.67;;;;;;;19.45;50.58;100801.53;5181599;28;20538;-78
2021/04/01 10:56:14;;;;;;;105.90;50.65;;;;;;;19.07;50.77;100804.06;5183491;28;20038;-77
2021/04/01 10:58:55;;;;;;;104.13;50.60;;;;;;;19.02;51.21;100806.19;5184824;28;20427;-77
2021/04/01 11:01:37;;;;;;;95.57;49.53;;;;;;;18.92;51.47;100813.03;5185293;28;20491;-79
2021/04/01 11:04:10;;;;;;;98.28;50.42;;;;;;;19.07;52.15;100812.00;5187065;28;20545;-78
2021/04/01 11:06:44;;;;;;;91.95;47.42;;;;;;;18.88;51.95;100816.84;5190505;28;20033;-79
2021/04/01 11:09:15;;;;;;;92.22;48.33;;;;;;;18.76;52.62;100806.19;5195427;28;20033;-79
2021/04/01 11:14:23;;;;;;;88.32;47.53;;;;;;;18.98;52.53;100817.06;5191336;28;20122;-79
2021/04/01 11:16:56;;;;;;;92.10;48.20;;;;;;;18.97;52.79;100810.06;5197712;28;20030;-80
2021/04/01 11:19:30;;;;;;;89.60;45.85;;;;;;;18.95;51.53;100809.34;5180941;28;20518;-78
2021/04/01 11:22:03;;;;;;;90.00;47.92;;;;;;;18.94;52.18;100805.81;5189670;28;20423;-78
2021/04/01 11:24:35;;;;;;;95.82;48.15;;;;;;;18.86;51.48;100807.28;5186221;28;20053;-79
2021/04/01 11:27:17;;;;;;;90.97;45.17;;;;;;;18.91;52.60;100810.50;5189313;28;20048;-79
2021/04/01 11:29:55;;;;;;;93.60;46.10;;;;;;;19.08;52.40;100815.53;5189313;28;20056;-80
2021/04/01 11:32:30;;;;;;;93.88;44.83;;;;;;;18.93;52.23;100816.53;5186710;28;20029;-80
2021/04/01 11:35:04;;;;;;;92.45;45.88;;;;;;;19.18;52.69;100808.69;5183939;28;20431;-79
2021/04/01 11:37:37;;;;;;;88.80;45.33;;;;;;;18.91;52.24;100821.09;5189080;28;20105;-80
2021/04/01 11:40:08;;;;;;;91.53;44.92;;;;;;;18.92;52.13;100817.50;5196826;28;20034;-79
2021/04/01 11:42:38;;;;;;;100.97;46.90;;;;;;;18.92;52.22;100828.91;5191290;28;20030;-80
2021/04/01 11:45:09;;;;;;;91.55;46.55;;;;;;;19.13;52.02;100822.19;5193200;28;20038;-79
2021/04/01 11:47:39;;;;;;;93.72;46.00;;;;;;;18.83;52.54;100828.66;5194802;28;20037;-79
2021/04/01 11:50:11;;;;;;;93.82;46.15;;;;;;;18.75;53.17;100837.13;5187342;28;20040;-79
2021/04/01 11:52:42;;;;;;;84.07;45.17;;;;;;;18.78;53.62;100836.06;5188754;28;20105;-79
2021/04/01 11:55:13;;;;;;;81.72;42.92;;;;;;;18.73;53.84;100832.88;5184061;28;20788;-79
2021/04/01 11:57:44;;;;;;;88.95;45.03;;;;;;;18.57;54.43;100831.31;5186779;28;20113;-79
2021/04/01 12:00:27;;;;;;;84.55;44.22;;;;;;;18.54;54.33;100831.50;5186903;28;20034;-80
2021/04/01 12:05:38;;;;;;;84.95;44.72;;;;;;;18.63;54.83;100837.06;5188310;28;20048;-79
2021/04/01 12:08:08;;;;;;;86.90;47.53;;;;;;;18.33;55.83;100835.53;5190672;28;20083;-79
2021/04/01 12:10:40;;;;;;;89.38;46.38;;;;;;;18.43;56.28;100831.34;5198126;28;20041;-79
2021/04/01 12:13:10;;;;;;;85.78;48.30;;;;;;;18.53;57.02;100841.22;5188360;28;20053;-77
2021/04/01 12:15:41;;;;;;;81.53;47.90;;;;;;;18.45;57.06;100840.03;5196067;28;20041;-77
2021/04/01 12:18:11;;;;;;;89.22;48.60;;;;;;;18.41;57.40;100823.50;5192827;28;20281;-79
2021/04/01 12:20:42;;;;;;;91.60;48.08;;;;;;;18.67;57.40;100827.13;5188177;28;20381;-79
2021/04/01 12:23:20;;;;;;;79.50;46.70;;;;;;;18.68;57.13;100832.31;5188223;28;20026;-77
2021/04/01 12:26:02;;;;;;;78.28;42.92;;;;;;;18.26;56.37;100836.81;5188193;28;20037;-79
2021/04/01 12:28:33;;;;;;;80.43;40.30;;;;;;;18.13;56.43;100841.16;5185120;28;20050;-79
2021/04/01 12:31:04;;;;;;;74.18;42.40;;;;;;;18.11;56.76;100837.75;5185129;28;20514;-79
2021/04/01 12:33:37;;;;;;;73.35;40.25;;;;;;;18.30;57.38;100849.78;5187993;28;20156;-78
2021/04/01 12:36:07;;;;;;;76.43;42.67;;;;;;;18.29;57.36;100857.81;5186381;28;20121;-80
2021/04/01 12:38:42;;;;;;;80.63;44.53;;;;;;;18.25;58.25;100845.69;5187850;28;20094;-78
2021/04/01 12:41:22;;;;;;;75.45;40.28;;;;;;;17.97;58.53;100846.56;5191128;28;20129;-78
2021/04/01 12:43:54;;;;;;;58.65;32.88;;;;;;;17.77;62.04;100856.63;5186860;28;20089;-77
2021/04/01 12:46:43;;;;;;;55.53;31.50;;;;;;;17.64;63.22;100859.16;5192059;28;20033;-76
2021/04/01 12:49:16;;;;;;;55.95;31.23;;;;;;;17.48;63.84;100855.75;5185710;28;20050;-77
2021/04/01 12:51:56;;;;;;;60.28;31.63;;;;;;;17.58;64.36;100863.97;5188125;28;20113;-78
2021/04/01 12:54:29;;;;;;;54.47;31.13;;;;;;;17.57;64.43;100865.78;5188358;28;20041;-79
2021/04/01 12:57:02;;;;;;;50.70;28.92;;;;;;;17.59;65.16;100865.66;5182295;28;20038;-79
2021/04/01 12:59:48;;;;;;;53.92;28.98;;;;;;;17.70;64.34;100869.41;5187541;28;20109;-78
2021/04/01 13:02:21;;;;;;;47.63;28.73;;;;;;;17.41;65.31;100859.69;5183372;28;20030;-78
2021/04/01 13:04:56;;;;;;;47.78;28.58;;;;;;;17.36;65.57;100876.75;5187794;28;20048;-79
2021/04/01 13:10:30;;;;;;;52.47;28.33;;;;;;;17.11;66.33;100868.53;5182790;28;19921;-77
2021/04/01 13:12:50;;;;;;;41.97;25.25;;;;;;;17.00;65.91;100884.13;5185569;28;20045;-79
2021/04/01 13:15:20;;;;;;;39.90;24.40;;;;;;;16.86;65.95;100876.13;5188368;28;20033;-79
2021/04/01 13:17:51;;;;;;;42.35;22.95;;;;;;;16.81;66.32;100883.47;5187515;28;20305;-78
2021/04/01 13:20:21;;;;;;;34.72;19.73;;;;;;;16.77;66.48;100878.44;5185788;28;20029;-79
2021/04/01 13:25:34;;;;;;;31.15;15.25;;;;;;;16.88;65.77;100882.19;5184059;28;20084;-79
2021/04/01 13:28:08;;;;;;;21.45;12.82;;;;;;;16.93;66.38;100880.13;5186156;28;20057;-78
2021/04/01 13:30:39;;;;;;;21.85;11.55;;;;;;;16.78;65.31;100881.00;5183090;28;20373;-78
2021/04/01 13:38:15;;;;;;;16.85;8.48;;;;;;;16.98;64.28;100875.44;5187676;28;20141;-77
2021/04/01 13:40:47;;;;;;;17.02;8.05;;;;;;;17.41;63.97;100879.97;5195696;28;20089;-79